Time;durP1;ratioP1;P1;durP2;ratioP2;P2;SDS_P1;SDS_P2;PMS_P1;PMS_P2;Temp;Humidity;BMP_temperature;BMP_pressure;BME280_temperature;BME280_humidity;BME280_pressure;Samples;Min_cycle;Max_cycle;Signal;HPM_P1;HPM_P2
2024/01/25 00:00:41;;;;;;;173.77;84.53;;;;;;;;;;4404108;32;319958;-77
2024/01/25 00:03:10;;;;;;;155.17;79.63;;;;;;;;;;4364989;32;319186;-76
2024/01/25 00:05:38;;;;;;;142.87;79.43;;;;;;;;;;4392281;32;319331;-76
2024/01/25 00:08:08;;;;;;;151.43;81.73;;;;;;;;;;4384145;32;319340;-76
2024/01/25 00:10:36;;;;;;;132.20;73.40;;;;;;;;;;4376197;32;319220;-76
2024/01/25 00:15:54;;;;;;;105.13;51.93;;;;;;;;;;4392451;32;318918;-77
2024/01/25 00:18:22;;;;;;;90.00;48.33;;;;;;;;;;4376603;32;418399;-77
2024/01/25 00:20:51;;;;;;;98.77;50.73;;;;;;;;;;4396810;32;337865;-77
2024/01/25 00:23:17;;;;;;;94.43;48.67;;;;;;;;;;4380885;32;318385;-77
2024/01/25 00:25:44;;;;;;;122.10;65.10;;;;;;;;;;4409048;32;317396;-77
2024/01/25 00:28:13;;;;;;;153.77;80.13;;;;;;;;;;4373801;32;419734;-77
2024/01/25 00:30:40;;;;;;;151.70;78.70;;;;;;;;;;4408507;32;319122;-77
2024/01/25 00:33:09;;;;;;;149.47;79.93;;;;;;;;;;4392124;32;318356;-77
2024/01/25 00:35:39;;;;;;;158.73;83.17;;;;;;;;;;4408466;32;318408;-76
2024/01/25 00:38:08;;;;;;;148.83;79.63;;;;;;;;;;4398021;32;319437;-76
2024/01/25 00:40:37;;;;;;;143.37;78.03;;;;;;;;;;4408685;32;319188;-76
2024/01/25 00:43:06;;;;;;;132.77;75.63;;;;;;;;;;4394142;32;336566;-76
2024/01/25 00:45:34;;;;;;;113.83;61.77;;;;;;;;;;4403753;32;319375;-76
2024/01/25 00:48:05;;;;;;;108.60;59.03;;;;;;;;;;4391008;32;319156;-76
2024/01/25 00:50:39;;;;;;;109.60;60.50;;;;;;;;;;4405851;32;319347;-76
2024/01/25 00:53:09;;;;;;;138.97;66.83;;;;;;;;;;4384166;32;319075;-76
2024/01/25 00:55:38;;;;;;;112.73;62.80;;;;;;;;;;4406918;32;319066;-76
2024/01/25 00:58:08;;;;;;;113.07;62.13;;;;;;;;;;4399120;32;317701;-76
2024/01/25 01:00:45;;;;;;;93.67;54.03;;;;;;;;;;4408121;32;319118;-76
2024/01/25 01:03:14;;;;;;;77.43;49.97;;;;;;;;;;4381665;32;417486;-76
2024/01/25 01:05:50;;;;;;;79.90;49.93;;;;;;;;;;4408521;32;316644;-76
2024/01/25 01:08:21;;;;;;;96.20;55.77;;;;;;;;;;4391031;32;417470;-76
2024/01/25 01:10:49;;;;;;;109.17;63.37;;;;;;;;;;4389661;32;318198;-76
2024/01/25 01:13:17;;;;;;;107.50;63.43;;;;;;;;;;4400158;32;358972;-76
2024/01/25 01:15:45;;;;;;;121.57;73.90;;;;;;;;;;4392811;32;319031;-76
2024/01/25 01:18:16;;;;;;;133.37;74.70;;;;;;;;;;4380911;32;419861;-76
2024/01/25 01:20:44;;;;;;;135.43;79.00;;;;;;;;;;4408537;32;318611;-76
2024/01/25 01:23:12;;;;;;;133.17;76.57;;;;;;;;;;4391590;32;319440;-76
2024/01/25 01:25:42;;;;;;;130.13;70.13;;;;;;;;;;4409335;32;318422;-76
2024/01/25 01:28:09;;;;;;;99.03;58.23;;;;;;;;;;4381826;32;319155;-76
2024/01/25 01:30:41;;;;;;;91.30;55.20;;;;;;;;;;4402767;32;351083;-76
2024/01/25 01:33:10;;;;;;;134.50;73.83;;;;;;;;;;4392639;32;318261;-76
2024/01/25 01:35:40;;;;;;;141.83;77.13;;;;;;;;;;4408436;32;319246;-76
2024/01/25 01:38:10;;;;;;;110.43;63.67;;;;;;;;;;4396168;32;319401;-76
2024/01/25 01:40:38;;;;;;;96.83;59.73;;;;;;;;;;4407032;32;319527;-76
2024/01/25 01:43:09;;;;;;;108.53;63.57;;;;;;;;;;4385093;32;318067;-76
2024/01/25 01:45:36;;;;;;;110.83;64.47;;;;;;;;;;4402622;32;318712;-76
2024/01/25 01:48:05;;;;;;;113.70;62.90;;;;;;;;;;4396958;32;319264;-76
2024/01/25 01:50:36;;;;;;;100.40;61.50;;;;;;;;;;4409568;32;319445;-76
2024/01/25 01:53:05;;;;;;;100.93;63.07;;;;;;;;;;4384170;32;341244;-76
2024/01/25 01:55:41;;;;;;;103.80;62.13;;;;;;;;;;4409686;32;319369;-76
2024/01/25 01:58:08;;;;;;;98.57;59.53;;;;;;;;;;4379781;32;319131;-76
2024/01/25 02:00:39;;;;;;;103.90;58.30;;;;;;;;;;4376918;32;317580;-76
2024/01/25 02:03:07;;;;;;;94.10;55.53;;;;;;;;;;4394887;32;419222;-76
2024/01/25 02:05:38;;;;;;;112.60;61.50;;;;;;;;;;4407292;32;318033;-76
2024/01/25 02:08:07;;;;;;;98.73;59.07;;;;;;;;;;4388384;32;421064;-76
2024/01/25 02:10:37;;;;;;;101.03;61.60;;;;;;;;;;4393779;32;318115;-76
2024/01/25 02:13:04;;;;;;;101.70;60.67;;;;;;;;;;4379668;32;420313;-76
2024/01/25 02:15:34;;;;;;;94.57;56.97;;;;;;;;;;4385210;32;319394;-77
2024/01/25 02:18:01;;;;;;;111.33;58.77;;;;;;;;;;4378904;32;318138;-77
2024/01/25 02:20:31;;;;;;;104.47;60.93;;;;;;;;;;4378649;32;318750;-77
2024/01/25 02:23:01;;;;;;;103.50;59.50;;;;;;;;;;4337796;32;319015;-77
2024/01/25 02:25:30;;;;;;;90.97;58.03;;;;;;;;;;4349453;32;332392;-77
2024/01/25 02:28:01;;;;;;;103.97;62.03;;;;;;;;;;4341623;32;318751;-77
2024/01/25 02:30:27;;;;;;;98.67;58.67;;;;;;;;;;4332480;32;318661;-77
2024/01/25 02:32:57;;;;;;;96.33;52.73;;;;;;;;;;4346371;32;318253;-76
2024/01/25 02:35:28;;;;;;;87.03;51.03;;;;;;;;;;4360976;32;319786;-76
2024/01/25 02:37:56;;;;;;;83.13;49.37;;;;;;;;;;4345178;32;317230;-76
2024/01/25 02:40:26;;;;;;;82.27;49.47;;;;;;;;;;4401030;32;318120;-76
2024/01/25 02:42:52;;;;;;;84.20;50.50;;;;;;;;;;4397096;32;318540;-76
2024/01/25 02:45:23;;;;;;;82.50;50.00;;;;;;;;;;4400483;32;317937;-76
2024/01/25 02:50:33;;;;;;;85.37;48.53;;;;;;;;;;4387196;32;318508;-76
2024/01/25 02:53:01;;;;;;;82.60;48.77;;;;;;;;;;4385216;32;318401;-76
2024/01/25 02:55:35;;;;;;;84.87;49.97;;;;;;;;;;4373951;32;318103;-76
2024/01/25 02:58:02;;;;;;;90.20;52.03;;;;;;;;;;4382141;32;317545;-77
2024/01/25 03:00:30;;;;;;;88.40;52.17;;;;;;;;;;4390394;32;317747;-77
2024/01/25 03:03:00;;;;;;;84.03;49.17;;;;;;;;;;4362117;32;318393;-77
2024/01/25 03:05:28;;;;;;;90.73;51.80;;;;;;;;;;4370549;32;317413;-77
2024/01/25 03:07:56;;;;;;;88.77;52.10;;;;;;;;;;4364257;32;318790;-76
2024/01/25 03:10:26;;;;;;;88.93;47.40;;;;;;;;;;4396762;32;318082;-76
2024/01/25 03:12:57;;;;;;;78.23;48.60;;;;;;;;;;4386298;32;318242;-77
2024/01/25 03:15:24;;;;;;;83.57;49.67;;;;;;;;;;4395880;32;318341;-77
2024/01/25 03:17:52;;;;;;;82.93;51.27;;;;;;;;;;4381690;32;318149;-76
2024/01/25 03:20:19;;;;;;;88.90;48.53;;;;;;;;;;4401397;32;317706;-76
2024/01/25 03:22:47;;;;;;;83.00;49.03;;;;;;;;;;4370323;32;317682;-76
2024/01/25 03:25:14;;;;;;;85.87;49.30;;;;;;;;;;4382973;32;318214;-76
2024/01/25 03:27:41;;;;;;;84.53;49.50;;;;;;;;;;4400128;32;318279;-76
2024/01/25 03:30:12;;;;;;;79.50;50.80;;;;;;;;;;4403911;32;318185;-76
2024/01/25 03:32:41;;;;;;;97.10;55.77;;;;;;;;;;4371627;32;318180;-76
2024/01/25 03:35:09;;;;;;;93.03;55.40;;;;;;;;;;4399146;32;317555;-77
2024/01/25 03:37:39;;;;;;;106.27;63.03;;;;;;;;;;4384605;32;317759;-77
2024/01/25 03:40:08;;;;;;;102.50;61.20;;;;;;;;;;4375875;32;418596;-76
2024/01/25 03:42:38;;;;;;;114.07;66.03;;;;;;;;;;4400210;32;318717;-76
2024/01/25 03:45:08;;;;;;;95.70;62.33;;;;;;;;;;4353636;32;418719;-77
2024/01/25 03:47:38;;;;;;;117.93;66.90;;;;;;;;;;4373488;32;350047;-76
2024/01/25 03:50:08;;;;;;;115.77;69.10;;;;;;;;;;4358320;32;419721;-77
2024/01/25 03:52:39;;;;;;;107.30;65.20;;;;;;;;;;4394372;32;318547;-76
2024/01/25 03:55:09;;;;;;;113.37;65.90;;;;;;;;;;4386253;32;418555;-76
2024/01/25 03:57:40;;;;;;;119.30;69.93;;;;;;;;;;4388395;32;318654;-75
2024/01/25 04:00:11;;;;;;;114.53;68.40;;;;;;;;;;4388731;32;420017;-76
2024/01/25 04:02:48;;;;;;;114.57;69.03;;;;;;;;;;4400250;32;341297;-76
2024/01/25 04:05:15;;;;;;;110.00;65.27;;;;;;;;;;4402406;32;319316;-77
2024/01/25 04:07:49;;;;;;;96.73;60.67;;;;;;;;;;4375765;32;319046;-77
2024/01/25 04:10:19;;;;;;;92.43;57.20;;;;;;;;;;4391144;32;317629;-77
2024/01/25 04:12:50;;;;;;;96.03;61.03;;;;;;;;;;4389822;32;317548;-77
2024/01/25 04:15:16;;;;;;;103.10;60.43;;;;;;;;;;4408786;32;318244;-77
2024/01/25 04:17:46;;;;;;;95.80;58.43;;;;;;;;;;4398268;32;319085;-77
2024/01/25 04:20:13;;;;;;;107.73;59.97;;;;;;;;;;4406485;32;318302;-77
2024/01/25 04:22:39;;;;;;;105.97;64.90;;;;;;;;;;4396766;32;319237;-77
2024/01/25 04:25:07;;;;;;;113.13;62.87;;;;;;;;;;4409910;32;318441;-77
2024/01/25 04:27:37;;;;;;;101.77;63.30;;;;;;;;;;4408414;32;319681;-77
2024/01/25 04:30:15;;;;;;;104.67;63.70;;;;;;;;;;4347515;32;418695;-77
2024/01/25 04:32:43;;;;;;;106.97;63.97;;;;;;;;;;4401606;32;319396;-77
2024/01/25 04:35:15;;;;;;;98.47;62.63;;;;;;;;;;4402188;32;319602;-77
2024/01/25 04:37:43;;;;;;;110.30;64.70;;;;;;;;;;4400739;32;318211;-76
2024/01/25 04:40:12;;;;;;;100.83;63.53;;;;;;;;;;4401757;32;318611;-76
2024/01/25 04:42:42;;;;;;;115.33;64.73;;;;;;;;;;4391082;32;319324;-76
2024/01/25 04:45:13;;;;;;;104.63;62.23;;;;;;;;;;4407170;32;318379;-76
2024/01/25 04:47:43;;;;;;;108.63;64.03;;;;;;;;;;4399331;32;319172;-76
2024/01/25 04:50:18;;;;;;;89.20;54.90;;;;;;;;;;4399882;32;319157;-76
2024/01/25 04:52:44;;;;;;;84.33;51.13;;;;;;;;;;4391146;32;318154;-76
2024/01/25 04:55:13;;;;;;;88.93;53.33;;;;;;;;;;4409257;32;318326;-77
2024/01/25 04:57:43;;;;;;;95.93;60.33;;;;;;;;;;4393306;32;318041;-77
2024/01/25 05:00:20;;;;;;;103.53;60.00;;;;;;;;;;4406217;32;318303;-77
2024/01/25 05:02:47;;;;;;;128.27;78.83;;;;;;;;;;4396759;32;318797;-77
2024/01/25 05:05:16;;;;;;;148.57;87.13;;;;;;;;;;4408274;32;319385;-77
2024/01/25 05:07:44;;;;;;;140.47;76.90;;;;;;;;;;4376207;32;319299;-77
2024/01/25 05:10:11;;;;;;;102.47;59.20;;;;;;;;;;4390449;32;318413;-77
2024/01/25 05:12:39;;;;;;;96.63;54.67;;;;;;;;;;4382249;32;319176;-77
2024/01/25 05:15:08;;;;;;;76.23;49.90;;;;;;;;;;4394003;32;318404;-77
2024/01/25 05:17:37;;;;;;;60.87;40.80;;;;;;;;;;4394784;32;318679;-77
2024/01/25 05:20:06;;;;;;;61.13;38.17;;;;;;;;;;4388841;32;418965;-77
2024/01/25 05:22:39;;;;;;;51.70;32.97;;;;;;;;;;4382664;32;318525;-78
2024/01/25 05:25:08;;;;;;;57.10;36.20;;;;;;;;;;4364545;32;390355;-78
2024/01/25 05:27:36;;;;;;;56.70;35.63;;;;;;;;;;4387655;32;317640;-77
2024/01/25 05:30:05;;;;;;;63.03;36.10;;;;;;;;;;4373007;32;418725;-76
2024/01/25 05:32:33;;;;;;;59.00;38.87;;;;;;;;;;4384198;32;318308;-76
2024/01/25 05:35:04;;;;;;;74.70;44.40;;;;;;;;;;4374495;32;318052;-76
2024/01/25 05:37:41;;;;;;;72.13;45.10;;;;;;;;;;4394487;32;318066;-76
2024/01/25 05:40:12;;;;;;;75.70;43.83;;;;;;;;;;4387110;32;418755;-77
2024/01/25 05:42:39;;;;;;;127.37;66.87;;;;;;;;;;4399449;32;317631;-77
2024/01/25 05:45:07;;;;;;;119.30;63.07;;;;;;;;;;4404419;32;318501;-77
2024/01/25 05:47:35;;;;;;;112.83;68.33;;;;;;;;;;4408707;32;317676;-77
2024/01/25 05:50:05;;;;;;;92.33;51.80;;;;;;;;;;4387429;32;418384;-76
2024/01/25 05:52:37;;;;;;;90.00;55.10;;;;;;;;;;4407129;32;318023;-76
2024/01/25 05:55:05;;;;;;;90.07;54.07;;;;;;;;;;4379212;32;417654;-77
2024/01/25 05:57:32;;;;;;;104.27;57.67;;;;;;;;;;4387887;32;317577;-77
2024/01/25 06:00:00;;;;;;;107.93;61.33;;;;;;;;;;4389331;32;319475;-76
2024/01/25 06:02:28;;;;;;;97.23;57.70;;;;;;;;;;4393509;32;318649;-77
2024/01/25 06:05:04;;;;;;;92.43;58.53;;;;;;;;;;4390782;32;333000;-77
2024/01/25 06:07:34;;;;;;;109.13;63.73;;;;;;;;;;4401751;32;317509;-77
2024/01/25 06:10:01;;;;;;;122.20;72.77;;;;;;;;;;4379459;32;319415;-78
2024/01/25 06:12:32;;;;;;;123.60;70.57;;;;;;;;;;4376507;32;319394;-78
2024/01/25 06:15:01;;;;;;;130.67;79.47;;;;;;;;;;4382085;32;347205;-77
2024/01/25 06:17:31;;;;;;;138.60;87.63;;;;;;;;;;4391982;32;319233;-77
2024/01/25 06:20:02;;;;;;;161.43;92.07;;;;;;;;;;4381566;32;319939;-76
2024/01/25 06:22:34;;;;;;;155.80;90.80;;;;;;;;;;4409413;32;318646;-77
2024/01/25 06:25:06;;;;;;;140.30;79.87;;;;;;;;;;4398917;32;319420;-77
2024/01/25 06:27:32;;;;;;;100.00;61.37;;;;;;;;;;4408334;32;319293;-76
2024/01/25 06:30:05;;;;;;;93.80;54.17;;;;;;;;;;4391614;32;319348;-76
2024/01/25 06:32:37;;;;;;;109.67;60.70;;;;;;;;;;4408657;32;318253;-76
2024/01/25 06:35:09;;;;;;;110.63;65.00;;;;;;;;;;4377252;32;419739;-77
2024/01/25 06:37:39;;;;;;;114.17;66.90;;;;;;;;;;4405549;32;318811;-77
2024/01/25 06:40:08;;;;;;;117.93;67.50;;;;;;;;;;4387828;32;418921;-76
2024/01/25 06:42:36;;;;;;;114.57;69.43;;;;;;;;;;4397526;32;319276;-76
2024/01/25 06:45:05;;;;;;;112.57;70.70;;;;;;;;;;4377949;32;417970;-77
2024/01/25 06:47:33;;;;;;;115.50;69.30;;;;;;;;;;4394964;32;319184;-78
2024/01/25 06:50:02;;;;;;;113.40;70.67;;;;;;;;;;4387368;32;319024;-76
2024/01/25 06:55:17;;;;;;;153.40;85.77;;;;;;;;;;4396431;32;390077;-77
2024/01/25 06:57:50;;;;;;;178.30;97.10;;;;;;;;;;4396242;32;318466;-77
2024/01/25 07:00:27;;;;;;;173.57;90.00;;;;;;;;;;4406257;32;319282;-77
2024/01/25 07:02:57;;;;;;;159.93;92.30;;;;;;;;;;4396727;32;319011;-77
2024/01/25 07:05:26;;;;;;;134.87;84.43;;;;;;;;;;4408323;32;319356;-78
2024/01/25 07:07:54;;;;;;;145.73;88.03;;;;;;;;;;4392042;32;319053;-77
2024/01/25 07:10:22;;;;;;;151.80;90.63;;;;;;;;;;4402793;32;319355;-77
2024/01/25 07:12:49;;;;;;;135.23;82.93;;;;;;;;;;4390451;32;318645;-77
2024/01/25 07:15:30;;;;;;;132.27;79.33;;;;;;;;;;4405322;32;319455;-78
2024/01/25 07:20:41;;;;;;;104.53;66.10;;;;;;;;;;4391272;32;318565;-77
2024/01/25 07:23:10;;;;;;;140.03;82.70;;;;;;;;;;4407578;32;319422;-77
2024/01/25 07:25:41;;;;;;;125.67;78.97;;;;;;;;;;4386053;32;318756;-77
2024/01/25 07:28:09;;;;;;;121.80;73.00;;;;;;;;;;4378964;32;318453;-77
2024/01/25 07:30:40;;;;;;;105.23;71.23;;;;;;;;;;4392964;32;319090;-76
2024/01/25 07:33:11;;;;;;;110.77;72.10;;;;;;;;;;4383330;32;418470;-76
2024/01/25 07:35:45;;;;;;;100.30;66.77;;;;;;;;;;4406548;32;319201;-77
2024/01/25 07:38:14;;;;;;;116.70;72.07;;;;;;;;;;4392791;32;318584;-77
2024/01/25 07:40:55;;;;;;;113.57;70.30;;;;;;;;;;4379850;32;319099;-76
2024/01/25 07:43:22;;;;;;;111.80;70.17;;;;;;;;;;4408953;32;319585;-76
2024/01/25 07:45:53;;;;;;;124.83;73.80;;;;;;;;;;4393772;32;319480;-76
2024/01/25 07:48:21;;;;;;;107.83;69.90;;;;;;;;;;4405826;32;334651;-77
2024/01/25 07:50:49;;;;;;;118.03;71.57;;;;;;;;;;4397201;32;318741;-76
2024/01/25 07:53:18;;;;;;;120.23;72.87;;;;;;;;;;4408267;32;319187;-76
2024/01/25 07:55:48;;;;;;;114.07;73.03;;;;;;;;;;4398697;32;319471;-76
2024/01/25 07:58:16;;;;;;;136.53;78.40;;;;;;;;;;4400903;32;319404;-76
2024/01/25 08:00:45;;;;;;;135.53;83.93;;;;;;;;;;4390494;32;318869;-76
2024/01/25 08:03:12;;;;;;;146.10;88.07;;;;;;;;;;4395434;32;319576;-76
2024/01/25 08:05:40;;;;;;;117.73;77.13;;;;;;;;;;4383112;32;321365;-77
2024/01/25 08:08:08;;;;;;;116.77;70.57;;;;;;;;;;4387428;32;318578;-77
2024/01/25 08:10:38;;;;;;;115.13;70.20;;;;;;;;;;4409420;32;318507;-76
2024/01/25 08:13:13;;;;;;;97.17;60.33;;;;;;;;;;4395200;32;420090;-76
2024/01/25 08:15:40;;;;;;;82.57;49.57;;;;;;;;;;4390259;32;317599;-76
2024/01/25 08:18:10;;;;;;;146.07;71.10;;;;;;;;;;4390498;32;318035;-76
2024/01/25 08:20:41;;;;;;;104.20;65.13;;;;;;;;;;4403525;32;350314;-76
2024/01/25 08:23:11;;;;;;;80.03;52.73;;;;;;;;;;4369728;32;418474;-77
2024/01/25 08:25:37;;;;;;;157.50;72.70;;;;;;;;;;4397113;32;318285;-76
2024/01/25 08:28:21;;;;;;;83.83;54.03;;;;;;;;;;4366438;32;418502;-77
2024/01/25 08:30:48;;;;;;;99.43;61.90;;;;;;;;;;4393332;32;318373;-77
2024/01/25 08:33:17;;;;;;;100.37;66.10;;;;;;;;;;4408700;32;318174;-76
2024/01/25 08:35:48;;;;;;;106.87;67.10;;;;;;;;;;4387323;32;319444;-77
2024/01/25 08:38:15;;;;;;;109.13;71.00;;;;;;;;;;4393388;32;319227;-77
2024/01/25 08:40:42;;;;;;;113.47;73.67;;;;;;;;;;4378029;32;319143;-77
2024/01/25 08:43:11;;;;;;;115.73;71.90;;;;;;;;;;4393035;32;333180;-77
2024/01/25 08:45:38;;;;;;;124.73;78.37;;;;;;;;;;4384372;32;319288;-77
2024/01/25 08:48:08;;;;;;;189.23;117.90;;;;;;;;;;4385165;32;319311;-77
2024/01/25 08:50:36;;;;;;;160.77;105.00;;;;;;;;;;4378921;32;320365;-78
2024/01/25 08:53:05;;;;;;;111.00;72.60;;;;;;;;;;4359896;32;320213;-77
2024/01/25 08:55:33;;;;;;;112.37;74.23;;;;;;;;;;4361409;32;319032;-79
2024/01/25 08:58:04;;;;;;;109.83;68.93;;;;;;;;;;4371025;32;319377;-76
2024/01/25 09:00:32;;;;;;;113.77;67.93;;;;;;;;;;4359774;32;317651;-77
2024/01/25 09:03:01;;;;;;;107.77;71.30;;;;;;;;;;4359129;32;319145;-76
2024/01/25 09:05:28;;;;;;;314.83;199.63;;;;;;;;;;4377706;32;318579;-76
2024/01/25 09:10:45;;;;;;;137.90;86.63;;;;;;;;;;4364292;32;330399;-77
2024/01/25 09:13:14;;;;;;;115.07;73.93;;;;;;;;;;4395220;32;319230;-77
2024/01/25 09:15:44;;;;;;;105.53;70.03;;;;;;;;;;4359303;32;319220;-77
2024/01/25 09:18:12;;;;;;;107.13;68.90;;;;;;;;;;4395024;32;318768;-76
2024/01/25 09:20:47;;;;;;;108.03;66.63;;;;;;;;;;4389549;32;319102;-76
2024/01/25 09:23:17;;;;;;;114.23;69.07;;;;;;;;;;4392237;32;319523;-77
2024/01/25 09:25:54;;;;;;;101.10;64.40;;;;;;;;;;4398276;32;318791;-76
2024/01/25 09:28:22;;;;;;;99.20;66.40;;;;;;;;;;4405737;32;357253;-77
2024/01/25 09:30:52;;;;;;;106.83;68.30;;;;;;;;;;4386546;32;317674;-77
2024/01/25 09:33:23;;;;;;;108.10;67.83;;;;;;;;;;4386278;32;318834;-77
2024/01/25 09:35:51;;;;;;;120.77;73.63;;;;;;;;;;4375892;32;318832;-77
2024/01/25 09:38:18;;;;;;;114.00;73.20;;;;;;;;;;4393921;32;318817;-77
2024/01/25 09:40:46;;;;;;;117.70;78.47;;;;;;;;;;4382229;32;352322;-77
2024/01/25 09:43:13;;;;;;;141.03;89.70;;;;;;;;;;4392256;32;318729;-77
2024/01/25 09:45:42;;;;;;;121.90;80.57;;;;;;;;;;4374016;32;319457;-77
2024/01/25 09:48:15;;;;;;;138.30;87.13;;;;;;;;;;4385872;32;319012;-76
2024/01/25 09:50:42;;;;;;;141.93;90.90;;;;;;;;;;4391163;32;318753;-77
2024/01/25 09:53:20;;;;;;;144.57;91.57;;;;;;;;;;4400592;32;318937;-77
2024/01/25 09:55:55;;;;;;;138.60;88.77;;;;;;;;;;4345240;32;318079;-78
2024/01/25 09:58:28;;;;;;;135.17;89.00;;;;;;;;;;4376901;32;347933;-77
2024/01/25 10:00:56;;;;;;;142.63;85.73;;;;;;;;;;4360663;32;331061;-78
2024/01/25 10:03:25;;;;;;;128.07;81.13;;;;;;;;;;4390270;32;318167;-77
2024/01/25 10:05:53;;;;;;;133.13;82.50;;;;;;;;;;4348970;32;319895;-76
2024/01/25 10:08:23;;;;;;;137.73;78.17;;;;;;;;;;4359155;32;319015;-78
2024/01/25 10:10:54;;;;;;;122.33;75.97;;;;;;;;;;4338029;32;317306;-78
2024/01/25 10:13:22;;;;;;;131.07;78.97;;;;;;;;;;4344961;32;317673;-78
2024/01/25 10:16:00;;;;;;;140.27;88.97;;;;;;;;;;4330766;32;318995;-77
2024/01/25 10:18:30;;;;;;;120.13;75.40;;;;;;;;;;4337257;32;317566;-77
2024/01/25 10:21:02;;;;;;;119.67;81.37;;;;;;;;;;4326854;32;318808;-77
2024/01/25 10:23:30;;;;;;;134.50;81.53;;;;;;;;;;4335334;32;319348;-78
2024/01/25 10:26:01;;;;;;;137.93;88.93;;;;;;;;;;4332972;32;319286;-78
2024/01/25 10:28:32;;;;;;;143.43;93.40;;;;;;;;;;4348002;32;317551;-77
2024/01/25 10:31:10;;;;;;;150.13;93.10;;;;;;;;;;4336406;32;318912;-77
2024/01/25 10:33:41;;;;;;;159.73;93.87;;;;;;;;;;4350007;32;319097;-77
2024/01/25 10:36:14;;;;;;;137.43;87.93;;;;;;;;;;4352858;32;317412;-77
2024/01/25 10:38:45;;;;;;;122.50;78.50;;;;;;;;;;4351577;32;318536;-77
2024/01/25 10:41:14;;;;;;;117.97;70.23;;;;;;;;;;4358503;32;319058;-77
2024/01/25 10:43:44;;;;;;;75.43;51.57;;;;;;;;;;4337263;32;318590;-77
2024/01/25 10:46:11;;;;;;;71.97;50.50;;;;;;;;;;4347898;32;317810;-78
2024/01/25 10:48:41;;;;;;;93.53;59.00;;;;;;;;;;4336744;32;317954;-77
2024/01/25 10:51:10;;;;;;;116.87;73.70;;;;;;;;;;4344852;32;317745;-78
2024/01/25 10:56:21;;;;;;;136.40;76.47;;;;;;;;;;4340259;32;319021;-79
2024/01/25 10:58:49;;;;;;;115.67;68.00;;;;;;;;;;4330289;32;319276;-78
2024/01/25 11:01:20;;;;;;;98.60;63.13;;;;;;;;;;4364022;32;319312;-77
2024/01/25 11:03:50;;;;;;;114.40;61.87;;;;;;;;;;4349973;32;317820;-77
2024/01/25 11:06:22;;;;;;;240.73;118.60;;;;;;;;;;4359113;32;317840;-77
2024/01/25 11:08:52;;;;;;;117.77;76.73;;;;;;;;;;4341235;32;319438;-77
2024/01/25 11:11:23;;;;;;;219.10;115.73;;;;;;;;;;4362369;32;317999;-77
2024/01/25 11:13:58;;;;;;;114.93;71.97;;;;;;;;;;4346613;32;320278;-78
2024/01/25 11:16:29;;;;;;;144.80;89.47;;;;;;;;;;4344076;32;319148;-77
2024/01/25 11:19:05;;;;;;;138.37;84.03;;;;;;;;;;4352268;32;319409;-78
2024/01/25 11:24:26;;;;;;;156.87;92.80;;;;;;;;;;4336903;32;391955;-77
2024/01/25 11:26:59;;;;;;;139.87;87.03;;;;;;;;;;4351051;32;318911;-77
2024/01/25 11:29:27;;;;;;;135.67;84.93;;;;;;;;;;4356502;32;318792;-79
2024/01/25 11:31:55;;;;;;;157.90;97.37;;;;;;;;;;4325089;32;318739;-78
2024/01/25 11:34:23;;;;;;;144.17;94.63;;;;;;;;;;4359701;32;319622;-77
2024/01/25 11:36:50;;;;;;;148.30;96.33;;;;;;;;;;4330734;32;317826;-77
2024/01/25 11:39:18;;;;;;;181.00;108.47;;;;;;;;;;4362100;32;317552;-78
2024/01/25 11:41:48;;;;;;;156.40;100.33;;;;;;;;;;4352260;32;318793;-78
2024/01/25 11:44:19;;;;;;;142.03;89.10;;;;;;;;;;4363856;32;320122;-77
2024/01/25 11:46:48;;;;;;;137.70;85.90;;;;;;;;;;4344631;32;319198;-77
2024/01/25 11:49:18;;;;;;;130.93;81.50;;;;;;;;;;4359221;32;317898;-78
2024/01/25 11:51:50;;;;;;;133.30;84.13;;;;;;;;;;4343309;32;318959;-79
2024/01/25 11:54:17;;;;;;;113.83;71.20;;;;;;;;;;4348028;32;318962;-76
2024/01/25 11:56:53;;;;;;;114.37;72.63;;;;;;;;;;4348912;32;322903;-77
2024/01/25 11:59:23;;;;;;;124.27;70.03;;;;;;;;;;4362817;32;319291;-78
2024/01/25 12:01:53;;;;;;;115.70;67.17;;;;;;;;;;4335265;32;320437;-77
2024/01/25 12:04:23;;;;;;;178.43;112.17;;;;;;;;;;4361351;32;319049;-77
2024/01/25 12:07:10;;;;;;;153.30;89.43;;;;;;;;;;4347072;32;320288;-78
2024/01/25 12:09:37;;;;;;;115.27;69.47;;;;;;;;;;4344401;32;319444;-77
2024/01/25 12:12:06;;;;;;;111.63;68.37;;;;;;;;;;4336645;32;319218;-77
2024/01/25 12:14:36;;;;;;;123.37;73.73;;;;;;;;;;4347650;32;318436;-77
2024/01/25 12:17:05;;;;;;;113.90;69.37;;;;;;;;;;4339746;32;418961;-77
2024/01/25 12:22:21;;;;;;;102.17;62.83;;;;;;;;;;4343788;32;390515;-77
2024/01/25 12:24:52;;;;;;;107.17;67.10;;;;;;;;;;4375505;32;318784;-77
2024/01/25 12:27:21;;;;;;;101.87;62.50;;;;;;;;;;4418570;32;319140;-77
2024/01/25 12:29:50;;;;;;;110.33;69.50;;;;;;;;;;4345930;32;319926;-78
2024/01/25 12:32:18;;;;;;;110.33;66.73;;;;;;;;;;4359669;32;317557;-78
2024/01/25 12:34:57;;;;;;;118.80;69.27;;;;;;;;;;4351060;32;318884;-77
2024/01/25 12:37:29;;;;;;;112.90;71.40;;;;;;;;;;4359281;32;339527;-78
2024/01/25 12:39:57;;;;;;;125.67;75.70;;;;;;;;;;4329841;32;319351;-76
2024/01/25 12:42:27;;;;;;;123.40;74.37;;;;;;;;;;4352073;32;318770;-78
2024/01/25 12:44:55;;;;;;;124.67;74.90;;;;;;;;;;4362324;32;318425;-78
2024/01/25 12:47:22;;;;;;;109.43;64.27;;;;;;;;;;4353143;32;340150;-76
2024/01/25 12:50:01;;;;;;;104.93;59.33;;;;;;;;;;4381864;32;318826;-78
2024/01/25 12:55:13;;;;;;;112.33;66.33;;;;;;;;;;4346746;32;390458;-77
2024/01/25 12:57:43;;;;;;;150.87;87.57;;;;;;;;;;4335154;32;349993;-77
2024/01/25 13:00:13;;;;;;;101.00;55.87;;;;;;;;;;4344045;32;318622;-77
2024/01/25 13:02:44;;;;;;;114.70;61.20;;;;;;;;;;4344172;32;318692;-76
2024/01/25 13:05:14;;;;;;;92.70;52.83;;;;;;;;;;4356456;32;319133;-76
2024/01/25 13:07:44;;;;;;;87.50;52.50;;;;;;;;;;4372712;32;341230;-76
2024/01/25 13:10:19;;;;;;;126.67;73.13;;;;;;;;;;4345943;32;317473;-76
2024/01/25 13:12:50;;;;;;;76.10;41.60;;;;;;;;;;4317939;32;318871;-76
2024/01/25 13:15:22;;;;;;;72.73;40.27;;;;;;;;;;4351426;32;350047;-76
2024/01/25 13:17:49;;;;;;;73.43;40.37;;;;;;;;;;4320563;32;339795;-76
2024/01/25 13:20:19;;;;;;;67.30;36.53;;;;;;;;;;4345639;32;317528;-77
2024/01/25 13:22:49;;;;;;;58.97;29.57;;;;;;;;;;4365521;32;317717;-77
2024/01/25 13:25:16;;;;;;;29.57;13.37;;;;;;;;;;4341096;32;334666;-76
2024/01/25 13:27:45;;;;;;;32.07;18.00;;;;;;;;;;4342118;32;318284;-77
2024/01/25 13:30:16;;;;;;;28.40;13.30;;;;;;;;;;4351326;32;318478;-76
2024/01/25 13:32:45;;;;;;;27.80;9.70;;;;;;;;;;4327392;32;316837;-76
2024/01/25 13:35:15;;;;;;;16.07;8.03;;;;;;;;;;4344159;32;356336;-76
2024/01/25 13:37:45;;;;;;;19.30;8.00;;;;;;;;;;4323266;32;317345;-77
2024/01/25 13:40:14;;;;;;;24.70;11.17;;;;;;;;;;4341294;32;316970;-77
2024/01/25 13:42:41;;;;;;;40.30;18.80;;;;;;;;;;4322179;32;317736;-77
2024/01/25 13:45:10;;;;;;;15.53;5.57;;;;;;;;;;4320536;33;318051;-78
2024/01/25 13:47:37;;;;;;;14.93;5.10;;;;;;;;;;4329854;32;318053;-77
2024/01/25 13:50:08;;;;;;;15.13;6.80;;;;;;;;;;4299162;32;416621;-76
2024/01/25 13:52:36;;;;;;;19.00;7.60;;;;;;;;;;4346516;32;317191;-76
2024/01/25 13:55:03;;;;;;;16.07;4.43;;;;;;;;;;4333217;32;417969;-76
2024/01/25 13:57:33;;;;;;;12.50;6.70;;;;;;;;;;4348768;32;317245;-76
2024/01/25 14:00:03;;;;;;;13.93;5.67;;;;;;;;;;4332926;32;317391;-76
2024/01/25 14:02:33;;;;;;;17.90;7.47;;;;;;;;;;4358890;32;318216;-76
2024/01/25 14:05:09;;;;;;;13.50;6.13;;;;;;;;;;4372674;32;316537;-76
2024/01/25 14:07:37;;;;;;;22.13;11.33;;;;;;;;;;4355527;32;316468;-76
2024/01/25 14:10:05;;;;;;;16.13;7.33;;;;;;;;;;4340328;32;419016;-76
2024/01/25 14:12:37;;;;;;;16.33;5.07;;;;;;;;;;4354480;32;316897;-76
2024/01/25 14:15:07;;;;;;;24.43;8.87;;;;;;;;;;4347062;32;417599;-76
2024/01/25 14:17:36;;;;;;;21.30;10.17;;;;;;;;;;4360003;32;316888;-76
2024/01/25 14:20:05;;;;;;;17.20;5.87;;;;;;;;;;4329915;32;417377;-77
2024/01/25 14:22:33;;;;;;;20.53;8.83;;;;;;;;;;4348917;32;317198;-77
2024/01/25 14:25:04;;;;;;;18.67;6.70;;;;;;;;;;4330054;32;316867;-76
2024/01/25 14:27:35;;;;;;;19.20;6.57;;;;;;;;;;4360875;32;317214;-78
2024/01/25 14:30:04;;;;;;;21.83;6.43;;;;;;;;;;4330785;32;317367;-76
2024/01/25 14:32:34;;;;;;;19.43;7.50;;;;;;;;;;4354815;32;316592;-76
2024/01/25 14:35:01;;;;;;;22.33;8.00;;;;;;;;;;4344925;32;316524;-76